Time;durP1;ratioP1;P1;durP2;ratioP2;P2;SDS_P1;SDS_P2;PMS_P1;PMS_P2;Temp;Humidity;BMP_temperature;BMP_pressure;BME280_temperature;BME280_humidity;BME280_pressure;Samples;Min_cycle;Max_cycle;Signal;HPM_P1;HPM_P2
2021/04/26 11:45:06;;;;;;;4.57;1.33;;;15.00;81.30;;;;;;3618998;39;20441;-87
2021/04/26 11:47:34;;;;;;;9.70;1.83;;;14.70;83.90;;;;;;3618919;39;20069;-88
2021/04/26 11:50:10;;;;;;;9.55;1.85;;;16.00;79.00;;;;;;3610726;39;20058;-86
2021/04/26 11:52:37;;;;;;;4.38;1.42;;;17.20;73.70;;;;;;3616552;39;20055;-87
2021/04/26 11:55:03;;;;;;;4.60;1.50;;;15.70;72.00;;;;;;3619837;39;20047;-86
2021/04/26 11:57:29;;;;;;;2.58;0.90;;;14.50;77.60;;;;;;3622163;39;20047;-87
2021/04/26 12:00:03;;;;;;;5.43;1.40;;;13.60;77.90;;;;;;3614884;39;20050;-88
2021/04/26 12:02:30;;;;;;;5.38;1.48;;;13.70;81.80;;;;;;3614585;39;20055;-87
2021/04/26 12:04:59;;;;;;;3.78;1.25;;;13.40;81.80;;;;;;3614677;39;20055;-86
2021/04/26 12:07:25;;;;;;;4.57;1.20;;;14.30;81.30;;;;;;3606193;39;20075;-86
2021/04/26 12:09:59;;;;;;;6.20;1.10;;;13.30;83.90;;;;;;3606901;39;20050;-87
2021/04/26 12:12:30;;;;;;;4.05;1.00;;;13.60;79.40;;;;;;3619569;39;20040;-90
2021/04/26 12:15:01;;;;;;;5.28;1.35;;;13.10;83.70;;;;;;3621054;39;20717;-90
2021/04/26 12:17:30;;;;;;;5.22;1.35;;;13.10;84.40;;;;;;3590891;40;20025;-90
2021/04/26 12:19:57;;;;;;;2.65;1.02;;;14.80;82.30;;;;;;3591042;40;20048;-92
2021/04/26 12:22:32;;;;;;;2.25;1.00;;;14.90;80.90;;;;;;3590896;40;20065;-91
2021/04/26 12:25:01;;;;;;;2.03;1.10;;;14.20;84.00;;;;;;3669262;23;20049;-79
2021/04/26 12:27:27;;;;;;;4.35;1.95;;;13.60;80.90;;;;;;3581254;40;20057;-80
2021/04/26 12:29:53;;;;;;;3.33;0.98;;;14.30;82.80;;;;;;3573604;40;20311;-77
2021/04/26 12:32:21;;;;;;;3.63;0.77;;;14.50;83.90;;;;;;3573329;40;20057;-79
2021/04/26 12:34:54;;;;;;;2.28;0.90;;;14.50;82.10;;;;;;3573278;40;20056;-78
2021/04/26 12:37:29;;;;;;;4.40;0.80;;;14.60;80.00;;;;;;3574042;40;20057;-77
2021/04/26 12:40:17;;;;;;;3.03;0.95;;;15.50;79.90;;;;;;3573739;40;20333;-79
2021/04/26 12:42:46;;;;;;;2.17;0.93;;;14.40;78.70;;;;;;3573437;40;20077;-78
2021/04/26 12:45:21;;;;;;;2.13;0.80;;;15.00;76.10;;;;;;3574043;40;20057;-78
2021/04/26 12:48:00;;;;;;;2.67;1.30;;;14.40;74.90;;;;;;3574906;40;20142;-78
2021/04/26 12:50:34;;;;;;;3.00;0.95;;;14.70;76.30;;;;;;3574436;40;20044;-79
2021/04/26 12:53:09;;;;;;;3.08;0.98;;;14.80;78.70;;;;;;3581631;40;20134;-79
2021/04/26 12:55:55;;;;;;;2.45;0.70;;;16.10;74.90;;;;;;3578012;40;20049;-77
2021/04/26 12:58:25;;;;;;;4.35;1.00;;;14.80;75.90;;;;;;3576000;40;20056;-77
2021/04/26 13:01:19;;;;;;;6.05;1.13;;;14.60;79.10;;;;;;3572500;40;20660;-71
2021/04/26 13:03:51;;;;;;;2.00;0.85;;;15.00;77.20;;;;;;3567103;40;20068;-72
2021/04/26 13:06:47;;;;;;;3.60;1.13;;;14.60;76.30;;;;;;3568107;40;20045;-73
2021/04/26 13:09:13;;;;;;;2.53;1.15;;;14.50;79.00;;;;;;3569680;40;20454;-73
2021/04/26 13:11:49;;;;;;;8.40;1.40;;;13.40;84.30;;;;;;3567896;40;20058;-73
2021/04/26 13:14:30;;;;;;;4.05;1.15;;;13.80;77.00;;;;;;3567075;40;20140;-73
2021/04/26 13:17:08;;;;;;;2.13;0.73;;;14.50;83.20;;;;;;3570079;40;20069;-72
2021/04/26 13:19:36;;;;;;;6.70;1.15;;;14.20;86.10;;;;;;3574615;40;20041;-73
2021/04/26 13:22:03;;;;;;;4.60;1.30;;;14.70;84.60;;;;;;3572930;40;20052;-73
2021/04/26 13:24:33;;;;;;;6.97;1.50;;;14.10;80.10;;;;;;3569310;40;20068;-74
2021/04/26 13:27:10;;;;;;;2.90;1.00;;;13.70;82.10;;;;;;3578001;40;20049;-73
2021/04/26 13:29:40;;;;;;;4.18;0.98;;;13.40;83.00;;;;;;3582003;40;20049;-73
2021/04/26 13:32:08;;;;;;;5.70;1.20;;;13.30;81.90;;;;;;3581341;40;20060;-71
2021/04/26 13:34:39;;;;;;;3.08;1.20;;;14.10;88.00;;;;;;3588035;40;20073;-72
2021/04/26 13:37:06;;;;;;;4.03;0.90;;;14.50;81.50;;;;;;3580944;40;20064;-71
2021/04/26 13:39:32;;;;;;;4.38;1.15;;;14.00;82.90;;;;;;3577821;40;20138;-72
2021/04/26 13:41:57;;;;;;;4.68;1.67;;;14.60;81.20;;;;;;3578962;40;20313;-71
2021/04/26 13:44:23;;;;;;;4.15;1.25;;;14.60;83.60;;;;;;3587657;40;20072;-72
2021/04/26 13:46:50;;;;;;;2.67;0.80;;;13.40;79.80;;;;;;3585738;40;20397;-72
2021/04/26 13:49:17;;;;;;;3.33;1.10;;;13.20;84.90;;;;;;3576949;40;20425;-72
2021/04/26 13:51:43;;;;;;;3.95;1.02;;;14.40;80.70;;;;;;3583236;40;20048;-71
2021/04/26 13:54:09;;;;;;;2.95;1.10;;;13.60;81.80;;;;;;3577719;40;20055;-73
2021/04/26 13:56:36;;;;;;;6.93;1.50;;;13.50;82.10;;;;;;3571543;40;20099;-73
2021/04/26 13:59:02;;;;;;;4.20;1.10;;;13.30;83.20;;;;;;3568859;40;20071;-70
2021/04/26 14:01:28;;;;;;;3.25;1.15;;;13.40;85.00;;;;;;3576294;40;20257;-73
2021/04/26 14:03:54;;;;;;;3.55;1.48;;;13.10;85.70;;;;;;3572218;40;20044;-72
2021/04/26 14:06:20;;;;;;;3.05;1.10;;;14.20;85.70;;;;;;3578288;40;20264;-73
2021/04/26 14:08:45;;;;;;;4.78;1.95;;;13.60;87.30;;;;;;3573118;40;20045;-74
2021/04/26 14:11:11;;;;;;;6.03;1.75;;;13.10;83.50;;;;;;3582514;40;20390;-73
2021/04/26 14:13:37;;;;;;;5.15;1.75;;;12.90;89.50;;;;;;3581533;40;20063;-72
2021/04/26 14:16:03;;;;;;;3.63;1.20;;;12.60;87.90;;;;;;3582659;40;20052;-74
2021/04/26 14:18:29;;;;;;;4.13;1.90;;;12.90;90.80;;;;;;3582183;40;20307;-70
2021/04/26 14:20:55;;;;;;;5.45;1.85;;;12.80;90.40;;;;;;3578614;40;20063;-70
2021/04/26 14:23:21;;;;;;;6.65;1.77;;;12.50;90.00;;;;;;3578262;40;20040;-71
2021/04/26 14:25:47;;;;;;;4.90;1.60;;;12.30;87.40;;;;;;3578785;40;20056;-71
2021/04/26 14:28:15;;;;;;;3.90;1.40;;;12.20;91.60;;;;;;3576971;40;20045;-70
2021/04/26 14:30:42;;;;;;;6.13;1.45;;;12.20;90.70;;;;;;3581541;40;20076;-71
2021/04/26 14:33:08;;;;;;;7.00;2.08;;;12.60;91.30;;;;;;3579594;40;20050;-71
2021/04/26 14:35:35;;;;;;;3.40;1.17;;;12.90;90.60;;;;;;3580129;40;20057;-73
2021/04/26 14:38:02;;;;;;;4.18;1.50;;;13.10;91.00;;;;;;3580459;40;20048;-73
2021/04/26 14:40:29;;;;;;;7.10;1.80;;;13.10;89.70;;;;;;3580832;40;20121;-70
2021/04/26 14:42:56;;;;;;;6.32;1.52;;;13.40;90.20;;;;;;3572707;40;20048;-74
2021/04/26 14:45:23;;;;;;;4.43;1.10;;;12.40;90.20;;;;;;3578351;40;20210;-74
2021/04/26 14:47:50;;;;;;;4.72;1.30;;;12.40;90.80;;;;;;3577258;40;20055;-73
2021/04/26 14:50:17;;;;;;;5.00;1.98;;;12.00;91.30;;;;;;3577168;40;20064;-74
2021/04/26 14:52:42;;;;;;;3.45;1.30;;;12.20;91.60;;;;;;3581736;40;20080;-73
2021/04/26 14:55:08;;;;;;;3.05;1.13;;;12.00;92.20;;;;;;3568844;40;20522;-73
2021/04/26 14:57:35;;;;;;;6.93;1.45;;;11.90;93.30;;;;;;3578060;40;20053;-72
2021/04/26 15:00:01;;;;;;;5.13;1.42;;;12.30;92.20;;;;;;3577998;40;20053;-70
2021/04/26 15:02:26;;;;;;;3.63;1.42;;;11.90;91.40;;;;;;3577121;40;20406;-72
2021/04/26 15:04:52;;;;;;;6.45;1.70;;;12.60;91.80;;;;;;3581025;40;20153;-72
2021/04/26 15:07:18;;;;;;;5.63;2.13;;;12.10;92.20;;;;;;3586327;40;20075;-70
2021/04/26 15:09:44;;;;;;;5.70;1.48;;;12.10;92.20;;;;;;3584896;40;20110;-71
2021/04/26 15:12:10;;;;;;;7.72;2.08;;;11.60;93.30;;;;;;3578592;40;20092;-71
2021/04/26 15:14:35;;;;;;;9.88;3.65;;;11.70;93.10;;;;;;3585308;40;20064;-72
2021/04/26 15:17:01;;;;;;;7.43;2.03;;;12.40;93.10;;;;;;3582831;40;20395;-71
2021/04/26 15:19:27;;;;;;;6.47;2.67;;;11.70;92.80;;;;;;3578143;40;20060;-71
2021/04/26 15:21:53;;;;;;;5.10;1.88;;;12.20;92.60;;;;;;3574909;40;20384;-72
2021/04/26 15:24:19;;;;;;;10.13;2.47;;;11.70;93.60;;;;;;3579713;40;20159;-74
2021/04/26 15:26:45;;;;;;;11.65;3.10;;;13.10;92.10;;;;;;3584818;40;20083;-71
2021/04/26 15:29:10;;;;;;;4.30;1.52;;;13.40;91.20;;;;;;3579983;40;20394;-71
2021/04/26 15:31:37;;;;;;;7.30;2.28;;;12.70;91.60;;;;;;3576551;40;20288;-70
2021/04/26 15:34:03;;;;;;;3.25;1.98;;;12.50;92.70;;;;;;3581709;40;20049;-71
2021/04/26 15:36:30;;;;;;;5.32;1.30;;;12.90;92.60;;;;;;3581995;40;20416;-71
2021/04/26 15:38:57;;;;;;;9.45;4.25;;;11.70;92.40;;;;;;3581346;40;20381;-72
2021/04/26 15:41:23;;;;;;;16.60;7.03;;;12.00;93.00;;;;;;3560061;40;20052;-71
2021/04/26 15:43:50;;;;;;;6.05;2.58;;;12.00;93.80;;;;;;3578012;40;20037;-72
2021/04/26 15:46:16;;;;;;;6.55;2.97;;;12.30;93.60;;;;;;3569095;40;20053;-72
2021/04/26 15:48:41;;;;;;;8.75;4.35;;;12.60;91.70;;;;;;3579701;40;20115;-71
2021/04/26 15:51:08;;;;;;;5.28;1.40;;;12.80;92.60;;;;;;3578809;40;20055;-72
2021/04/26 15:53:33;;;;;;;7.43;1.88;;;12.20;92.70;;;;;;3575812;40;20388;-71
2021/04/26 15:55:59;;;;;;;9.50;2.17;;;12.60;92.40;;;;;;3575898;40;20052;-70
2021/04/26 15:58:25;;;;;;;6.15;1.50;;;12.60;92.10;;;;;;3577672;40;20105;-72
2021/04/26 16:00:52;;;;;;;5.35;1.48;;;11.80;91.80;;;;;;3576817;40;20057;-72
2021/04/26 16:03:17;;;;;;;6.68;1.58;;;12.10;92.20;;;;;;3581216;40;20045;-71
2021/04/26 16:05:43;;;;;;;4.53;1.40;;;12.40;93.10;;;;;;3586116;40;20048;-71
2021/04/26 16:08:09;;;;;;;5.70;1.50;;;11.80;93.30;;;;;;3580319;40;20053;-73
2021/04/26 16:10:35;;;;;;;5.47;1.70;;;11.80;93.00;;;;;;3578601;40;20045;-72
2021/04/26 16:13:01;;;;;;;4.25;1.50;;;11.60;93.50;;;;;;3575761;40;20052;-71
2021/04/26 16:15:27;;;;;;;11.27;2.67;;;11.90;94.50;;;;;;3573815;40;20487;-73
2021/04/26 16:17:53;;;;;;;6.75;1.75;;;11.30;94.00;;;;;;3577316;40;20064;-71
2021/04/26 16:20:19;;;;;;;6.97;1.60;;;11.20;95.40;;;;;;3577102;40;20081;-73
2021/04/26 16:22:46;;;;;;;3.92;1.10;;;11.60;94.00;;;;;;3575734;40;20052;-74
2021/04/26 16:25:12;;;;;;;9.85;2.13;;;10.90;94.20;;;;;;3577251;40;20056;-74
2021/04/26 16:27:38;;;;;;;6.60;1.80;;;11.10;95.30;;;;;;3578137;40;20078;-73
2021/04/26 16:30:05;;;;;;;6.85;1.98;;;11.00;94.70;;;;;;3583965;40;20085;-75
2021/04/26 16:32:31;;;;;;;4.07;1.63;;;11.10;95.10;;;;;;3577454;40;20059;-74
2021/04/26 16:34:57;;;;;;;8.07;2.03;;;10.90;94.50;;;;;;3577354;40;20049;-74
2021/04/26 16:37:22;;;;;;;5.43;1.88;;;10.80;95.40;;;;;;3581626;40;20060;-73
2021/04/26 16:39:49;;;;;;;7.35;1.77;;;10.50;96.20;;;;;;3588015;40;20080;-73
2021/04/26 16:42:17;;;;;;;7.90;2.28;;;10.60;96.40;;;;;;3582692;40;20528;-78
2021/04/26 16:44:43;;;;;;;5.03;1.77;;;10.20;96.20;;;;;;3581344;40;20130;-77
2021/04/26 16:47:09;;;;;;;5.35;1.35;;;10.10;97.30;;;;;;3569962;40;20097;-79
2021/04/26 16:49:34;;;;;;;5.22;1.98;;;10.30;97.40;;;;;;3579246;40;20349;-78
2021/04/26 16:52:01;;;;;;;4.97;2.38;;;10.00;97.70;;;;;;3581032;40;20409;-79
2021/04/26 16:54:27;;;;;;;5.30;1.80;;;10.10;97.80;;;;;;3579139;40;20072;-78
2021/04/26 16:56:52;;;;;;;8.80;2.25;;;9.90;97.60;;;;;;3577770;40;20469;-78
2021/04/26 16:59:18;;;;;;;9.93;2.72;;;9.90;97.00;;;;;;3580095;40;20052;-75
2021/04/26 17:01:44;;;;;;;8.30;2.42;;;10.10;97.30;;;;;;3583910;40;20085;-78
2021/04/26 17:04:09;;;;;;;5.03;1.80;;;10.20;97.90;;;;;;3571721;40;20414;-78
2021/04/26 17:06:36;;;;;;;4.07;1.48;;;10.40;98.00;;;;;;3578191;40;20060;-77
2021/04/26 17:09:03;;;;;;;6.85;2.17;;;10.10;99.70;;;;;;3582263;40;20056;-79
2021/04/26 17:11:28;;;;;;;5.65;1.70;;;9.60;99.80;;;;;;3586642;40;20076;-76
2021/04/26 17:13:54;;;;;;;5.93;2.08;;;10.00;99.90;;;;;;3584381;40;20047;-79
2021/04/26 17:16:20;;;;;;;5.22;2.35;;;9.70;99.90;;;;;;3569792;40;20703;-79
2021/04/26 17:18:47;;;;;;;7.88;2.22;;;9.70;99.90;;;;;;3583987;40;20047;-77
2021/04/26 17:21:14;;;;;;;10.48;2.38;;;10.20;99.90;;;;;;3586365;40;20412;-79
2021/04/26 17:23:41;;;;;;;8.40;2.63;;;9.80;99.90;;;;;;3582639;40;20049;-79
2021/04/26 17:26:07;;;;;;;5.78;2.20;;;9.60;99.90;;;;;;3581813;40;20044;-79
2021/04/26 17:28:33;;;;;;;9.68;2.28;;;9.70;99.90;;;;;;3570853;40;20056;-79
2021/04/26 17:30:58;;;;;;;7.20;2.88;;;9.80;99.90;;;;;;3571267;40;20049;-79
2021/04/26 17:33:24;;;;;;;7.70;3.00;;;10.10;99.90;;;;;;3579384;40;20052;-79
2021/04/26 17:35:51;;;;;;;9.00;3.45;;;10.00;99.90;;;;;;3581134;40;20129;-79
2021/04/26 17:38:18;;;;;;;7.75;2.78;;;10.00;99.90;;;;;;3586528;40;20063;-79
2021/04/26 17:40:45;;;;;;;10.10;2.90;;;9.90;99.90;;;;;;3564104;40;20117;-79
2021/04/26 17:43:11;;;;;;;16.08;4.32;;;9.80;99.90;;;;;;3580699;40;20048;-77
2021/04/26 17:45:37;;;;;;;11.55;3.47;;;10.10;99.90;;;;;;3581358;40;20052;-76
2021/04/26 17:48:03;;;;;;;7.55;2.72;;;9.60;99.90;;;;;;3579564;40;20312;-79
2021/04/26 17:50:29;;;;;;;14.00;4.00;;;9.40;99.90;;;;;;3582843;40;20305;-79
2021/04/26 17:52:56;;;;;;;8.23;2.92;;;9.50;99.90;;;;;;3591079;40;20074;-79
2021/04/26 17:55:23;;;;;;;5.10;2.58;;;9.30;99.90;;;;;;3584894;40;20093;-78
2021/04/26 17:57:49;;;;;;;9.10;2.58;;;9.30;99.90;;;;;;3585682;40;20037;-79
2021/04/26 18:00:15;;;;;;;12.38;2.85;;;9.80;99.90;;;;;;3591062;40;20059;-79
2021/04/26 18:02:47;;;;;;;8.13;3.50;;;9.80;99.90;;;;;;3577749;40;20430;-78
2021/04/26 18:05:13;;;;;;;8.38;3.42;;;9.70;99.90;;;;;;3579223;40;20057;-78
2021/04/26 18:07:39;;;;;;;6.53;2.95;;;9.40;99.90;;;;;;3585286;40;20065;-80
2021/04/26 18:10:05;;;;;;;8.27;3.28;;;10.00;99.90;;;;;;3578499;40;20092;-79
2021/04/26 18:12:31;;;;;;;10.07;3.30;;;9.80;99.90;;;;;;3582057;40;20391;-77
2021/04/26 18:14:56;;;;;;;12.27;3.15;;;9.60;99.90;;;;;;3579823;40;20051;-78
2021/04/26 18:17:22;;;;;;;7.72;3.33;;;9.30;99.90;;;;;;3580082;40;20051;-79
2021/04/26 18:19:48;;;;;;;13.07;3.97;;;9.20;99.90;;;;;;3582528;40;20425;-75
2021/04/26 18:22:13;;;;;;;13.80;3.58;;;9.10;99.90;;;;;;3582532;40;20037;-79
2021/04/26 18:24:39;;;;;;;8.23;3.15;;;9.20;99.90;;;;;;3585260;40;20060;-79
2021/04/26 18:27:05;;;;;;;10.32;3.50;;;8.70;99.90;;;;;;3585011;40;20659;-77
2021/04/26 18:29:30;;;;;;;10.93;3.35;;;8.60;99.90;;;;;;3580957;40;20322;-78
2021/04/26 18:31:57;;;;;;;12.40;3.83;;;8.30;99.90;;;;;;3580429;40;20041;-78
2021/04/26 18:34:23;;;;;;;9.63;3.53;;;8.50;99.90;;;;;;3577701;40;20068;-79
2021/04/26 18:36:49;;;;;;;9.32;3.33;;;8.30;99.90;;;;;;3577901;40;20092;-79
2021/04/26 18:39:15;;;;;;;7.55;3.65;;;8.20;99.90;;;;;;3577002;40;20065;-79
2021/04/26 18:41:40;;;;;;;10.73;4.45;;;8.10;99.90;;;;;;3578387;40;20044;-79
2021/04/26 18:44:06;;;;;;;8.82;3.35;;;8.00;99.90;;;;;;3577147;40;20299;-78
2021/04/26 18:46:32;;;;;;;11.25;3.05;;;8.30;99.90;;;;;;3578493;40;20448;-79
2021/04/26 18:48:58;;;;;;;11.98;3.38;;;8.10;99.90;;;;;;3582553;40;20125;-78
2021/04/26 18:51:24;;;;;;;11.00;3.72;;;8.20;99.90;;;;;;3585746;40;20059;-79
2021/04/26 18:53:51;;;;;;;10.57;3.40;;;8.30;99.90;;;;;;3577085;40;20061;-79
2021/04/26 18:56:16;;;;;;;12.57;3.78;;;8.10;99.90;;;;;;3577718;40;20134;-78
2021/04/26 18:58:42;;;;;;;7.65;3.60;;;8.50;99.90;;;;;;3577086;40;20056;-79
2021/04/26 19:01:12;;;;;;;11.27;3.33;;;8.30;99.90;;;;;;3577838;40;20045;-79
2021/04/26 19:03:38;;;;;;;13.90;4.53;;;8.10;99.90;;;;;;3582516;40;20406;-79
2021/04/26 19:06:04;;;;;;;13.05;5.40;;;7.90;99.90;;;;;;3580894;40;20044;-79
2021/04/26 19:08:30;;;;;;;9.75;4.15;;;7.90;99.90;;;;;;3579758;40;20069;-79
2021/04/26 19:10:55;;;;;;;10.23;4.50;;;7.70;99.90;;;;;;3583079;40;20412;-79
2021/04/26 19:13:21;;;;;;;27.58;5.88;;;7.70;99.90;;;;;;3578760;40;20529;-79
2021/04/26 19:15:47;;;;;;;16.92;4.57;;;7.60;99.90;;;;;;3587501;40;20133;-78
2021/04/26 19:18:12;;;;;;;17.08;4.78;;;7.60;99.90;;;;;;3580291;40;20049;-78
2021/04/26 19:20:38;;;;;;;11.77;4.28;;;7.30;99.90;;;;;;3582074;40;20049;-79
2021/04/26 19:23:04;;;;;;;13.57;4.95;;;7.50;99.90;;;;;;3576771;40;20088;-79
2021/04/26 19:25:30;;;;;;;13.00;4.93;;;7.60;99.90;;;;;;3568655;40;20045;-78
2021/04/26 19:27:55;;;;;;;13.80;4.53;;;7.50;99.90;;;;;;3582708;40;20049;-79
2021/04/26 19:30:22;;;;;;;11.35;4.32;;;7.40;99.90;;;;;;3585890;40;20154;-81
2021/04/26 19:32:48;;;;;;;14.95;5.50;;;7.40;99.90;;;;;;3577769;40;20053;-81
2021/04/26 19:35:17;;;;;;;12.38;4.85;;;7.30;99.90;;;;;;3577377;40;20048;-81
2021/04/26 19:37:44;;;;;;;14.05;5.32;;;7.70;99.90;;;;;;3585695;40;20134;-81
2021/04/26 19:40:10;;;;;;;16.50;5.15;;;7.60;99.90;;;;;;3585884;40;20060;-80
2021/04/26 19:42:36;;;;;;;19.27;5.05;;;7.60;99.90;;;;;;3581230;40;20049;-79
2021/04/26 19:45:03;;;;;;;14.25;5.68;;;7.70;99.90;;;;;;3578022;40;20057;-81
2021/04/26 19:47:29;;;;;;;13.77;4.55;;;7.50;99.90;;;;;;3579666;40;20069;-80
2021/04/26 19:49:54;;;;;;;13.85;5.45;;;7.40;99.90;;;;;;3584517;40;20410;-81
2021/04/26 19:52:20;;;;;;;13.07;5.00;;;7.30;99.90;;;;;;3581815;40;20080;-81
2021/04/26 19:54:46;;;;;;;11.50;5.30;;;7.40;99.90;;;;;;3577097;40;20053;-79
2021/04/26 19:57:12;;;;;;;9.30;4.53;;;7.50;99.90;;;;;;3583203;40;20053;-81
2021/04/26 19:59:38;;;;;;;15.68;5.07;;;7.50;99.90;;;;;;3584449;40;20430;-81
2021/04/26 20:02:04;;;;;;;15.32;4.90;;;7.30;99.90;;;;;;3567752;40;20065;-83
2021/04/26 20:04:30;;;;;;;17.13;5.72;;;7.30;99.90;;;;;;3582991;40;20347;-80
2021/04/26 20:06:55;;;;;;;9.77;4.55;;;7.30;99.90;;;;;;3582996;40;20052;-81
2021/04/26 20:09:21;;;;;;;11.73;4.85;;;7.40;99.90;;;;;;3582133;40;20139;-79
2021/04/26 20:11:47;;;;;;;12.88;5.00;;;7.50;99.90;;;;;;3578260;40;20429;-79
2021/04/26 20:14:13;;;;;;;13.07;4.80;;;7.40;99.90;;;;;;3579175;40;20395;-80
2021/04/26 20:16:38;;;;;;;11.02;5.00;;;7.20;99.90;;;;;;3584422;40;20425;-79
2021/04/26 20:19:06;;;;;;;8.68;4.93;;;7.00;99.90;;;;;;3583933;40;20048;-79
2021/04/26 20:21:31;;;;;;;14.65;5.80;;;7.20;99.90;;;;;;3578574;40;20049;-79
2021/04/26 20:23:58;;;;;;;10.40;5.47;;;7.10;99.90;;;;;;3577918;40;20061;-80
2021/04/26 20:26:24;;;;;;;9.65;5.72;;;7.20;99.90;;;;;;3586814;40;20044;-79
2021/04/26 20:28:50;;;;;;;19.67;6.28;;;7.30;99.90;;;;;;3588491;40;20129;-79
2021/04/26 20:31:15;;;;;;;12.73;5.55;;;7.50;99.90;;;;;;3580766;40;20412;-80
2021/04/26 20:33:41;;;;;;;8.23;4.10;;;7.50;99.90;;;;;;3586697;40;20048;-80
2021/04/26 20:36:07;;;;;;;11.93;4.93;;;7.50;99.90;;;;;;3579957;40;20287;-79
2021/04/26 20:38:33;;;;;;;9.68;5.00;;;7.40;99.90;;;;;;3578286;40;20045;-80
2021/04/26 20:40:58;;;;;;;15.20;5.15;;;7.50;99.90;;;;;;3584329;40;20056;-80
2021/04/26 20:43:24;;;;;;;11.63;5.10;;;7.50;99.90;;;;;;3588459;40;20332;-78
2021/04/26 20:45:50;;;;;;;15.55;5.55;;;7.60;99.90;;;;;;3581168;40;20049;-80
2021/04/26 20:48:17;;;;;;;12.98;5.53;;;7.60;99.90;;;;;;3578619;40;20045;-80
2021/04/26 20:50:43;;;;;;;6.95;4.38;;;7.60;99.90;;;;;;3582480;40;20312;-80
2021/04/26 20:53:09;;;;;;;11.35;4.13;;;7.60;99.90;;;;;;3581948;40;20102;-81
2021/04/26 20:55:35;;;;;;;12.73;5.45;;;7.50;99.90;;;;;;3585991;40;20060;-80
2021/04/26 20:58:01;;;;;;;14.15;5.32;;;7.60;99.90;;;;;;3579432;40;20057;-80
2021/04/26 21:00:28;;;;;;;12.65;5.13;;;7.40;99.90;;;;;;3579434;40;20138;-79
2021/04/26 21:02:55;;;;;;;12.55;5.47;;;7.40;99.90;;;;;;3587275;40;20040;-81
2021/04/26 21:05:21;;;;;;;12.02;4.30;;;7.30;99.90;;;;;;3582210;40;20310;-80
2021/04/26 21:07:47;;;;;;;14.35;4.55;;;7.40;99.90;;;;;;3579758;40;20057;-81
2021/04/26 21:10:15;;;;;;;15.30;4.88;;;7.40;99.90;;;;;;3568706;40;20296;-79
2021/04/26 21:12:41;;;;;;;16.23;5.10;;;7.30;99.90;;;;;;3578595;40;20303;-79
2021/04/26 21:15:07;;;;;;;10.95;5.03;;;7.40;99.90;;;;;;3588806;40;20060;-81
2021/04/26 21:17:33;;;;;;;16.92;4.78;;;7.50;99.90;;;;;;3584088;40;20057;-79
2021/04/26 21:19:59;;;;;;;16.90;5.07;;;7.50;99.90;;;;;;3589347;40;20052;-81
2021/04/26 21:22:24;;;;;;;10.15;5.38;;;7.60;99.90;;;;;;3583499;40;20045;-79
2021/04/26 21:24:50;;;;;;;9.75;5.15;;;7.50;99.90;;;;;;3578047;40;20365;-81
2021/04/26 21:27:16;;;;;;;13.27;5.20;;;7.40;99.90;;;;;;3579608;40;20363;-80
2021/04/26 21:29:43;;;;;;;15.77;5.65;;;7.20;99.90;;;;;;3586227;40;20059;-81
2021/04/26 21:32:10;;;;;;;14.93;5.18;;;7.30;99.90;;;;;;3585693;40;20060;-80
2021/04/26 21:34:36;;;;;;;14.55;5.78;;;7.30;99.90;;;;;;3588989;40;20053;-80
2021/04/26 21:37:02;;;;;;;7.95;4.40;;;7.00;99.90;;;;;;3578735;40;20410;-82
2021/04/26 21:39:28;;;;;;;12.55;5.43;;;6.90;99.90;;;;;;3579364;40;20387;-77
2021/04/26 21:41:53;;;;;;;14.93;5.38;;;6.80;99.90;;;;;;3572439;40;20049;-80
2021/04/26 21:44:19;;;;;;;13.80;5.15;;;6.70;99.90;;;;;;3588958;40;20047;-80
2021/04/26 21:46:45;;;;;;;9.95;4.78;;;6.80;99.90;;;;;;3585570;40;20531;-80
2021/04/26 21:49:10;;;;;;;10.52;4.97;;;6.80;99.90;;;;;;3570653;40;20099;-81
2021/04/26 21:51:36;;;;;;;11.85;5.63;;;6.80;99.90;;;;;;3588493;40;20049;-81
